createdAt,value
2023-02-13T00:00:23.165Z,102054.63
2023-02-13T00:02:50.880Z,102059.19
2023-02-13T00:05:19.199Z,102063.03
2023-02-13T00:07:48.307Z,102062.03
2023-02-13T00:10:16.003Z,102057.47
2023-02-13T00:12:43.605Z,102067.41
2023-02-13T00:15:11.301Z,102065.72
2023-02-13T00:17:38.940Z,102068.44
2023-02-13T00:20:07.300Z,102069.41
2023-02-13T00:22:36.422Z,102074.81
2023-02-13T00:25:05.688Z,102077.50
2023-02-13T00:27:33.378Z,102072.09
2023-02-13T00:30:01.093Z,102077.50
2023-02-13T00:32:28.739Z,102077.50
2023-02-13T00:34:56.536Z,102090.13
2023-02-13T00:37:24.195Z,102077.69
2023-02-13T00:39:51.906Z,102077.69
2023-02-13T00:42:24.017Z,102078.50
2023-02-13T00:44:51.790Z,102078.50
2023-02-13T00:47:19.465Z,102074.97
2023-02-13T00:49:47.150Z,102069.41
2023-02-13T00:52:14.827Z,102081.06
2023-02-13T00:54:42.464Z,102078.38
2023-02-13T00:57:10.105Z,102069.41
2023-02-13T00:59:39.139Z,102071.13
2023-02-13T01:02:06.854Z,102074.66
2023-02-13T01:04:34.515Z,102075.50
2023-02-13T01:07:02.225Z,102076.50
2023-02-13T01:09:30.326Z,102081.06
2023-02-13T01:11:58.001Z,102088.28
2023-02-13T01:14:25.752Z,102085.56
2023-02-13T01:16:54.793Z,102090.97
2023-02-13T01:19:22.551Z,102099.22
2023-02-13T01:21:50.256Z,102098.38
2023-02-13T01:24:17.991Z,102089.44
2023-02-13T01:26:45.790Z,102084.91
2023-02-13T01:29:13.492Z,102085.91
2023-02-13T01:31:41.341Z,102080.50
2023-02-13T01:34:10.456Z,102092.31
2023-02-13T01:36:38.137Z,102084.22
2023-02-13T01:39:05.832Z,102083.22
2023-02-13T01:41:33.446Z,102078.00
2023-02-13T01:44:01.600Z,102078.84
2023-02-13T01:46:30.310Z,102078.00
2023-02-13T01:48:59.653Z,102078.84
2023-02-13T01:51:30.137Z,102064.53
2023-02-13T01:53:59.747Z,102069.91
2023-02-13T01:56:28.519Z,102068.91
2023-02-13T01:58:57.284Z,102068.06
2023-02-13T02:01:25.003Z,102064.34
2023-02-13T02:03:53.554Z,102058.97
2023-02-13T02:06:22.557Z,102058.97
2023-02-13T02:08:51.669Z,102058.97
2023-02-13T02:11:22.105Z,102061.66
2023-02-13T02:13:49.798Z,102066.06
2023-02-13T02:16:17.565Z,102074.16
2023-02-13T02:18:45.274Z,102073.13
2023-02-13T02:21:40.144Z,102070.59
2023-02-13T02:24:25.453Z,102073.28
2023-02-13T02:27:11.628Z,102076.97
2023-02-13T02:29:48.356Z,102072.63
2023-02-13T02:32:20.048Z,102079.81
2023-02-13T02:34:49.946Z,102087.06
2023-02-13T02:37:20.162Z,102085.22
2023-02-13T02:39:49.460Z,102080.84
2023-02-13T02:42:19.933Z,102085.38
2023-02-13T02:44:49.949Z,102092.44
2023-02-13T02:47:39.693Z,102092.63
2023-02-13T02:50:12.640Z,102091.63
2023-02-13T02:52:45.586Z,102093.47
2023-02-13T02:55:16.630Z,102089.94
2023-02-13T02:58:03.051Z,102089.94
2023-02-13T03:00:48.215Z,102096.16
2023-02-13T03:03:35.908Z,102095.31
2023-02-13T03:06:14.004Z,102095.31
2023-02-13T03:08:59.607Z,102097.00
2023-02-13T03:11:44.846Z,102097.00
2023-02-13T03:14:12.651Z,102098.69
2023-02-13T03:16:57.641Z,102101.56
2023-02-13T03:19:45.833Z,102106.75
2023-02-13T03:22:20.765Z,102105.78
2023-02-13T03:24:51.062Z,102109.44
2023-02-13T03:27:41.574Z,102112.16
2023-02-13T03:30:11.905Z,102114.00
2023-02-13T03:32:40.829Z,102126.63
2023-02-13T03:35:31.310Z,102116.88
2023-02-13T03:37:59.449Z,102112.31
2023-02-13T03:40:29.277Z,102099.00
2023-02-13T03:42:57.770Z,102099.00
2023-02-13T03:45:44.191Z,102104.38
2023-02-13T03:48:31.967Z,102095.66
2023-02-13T03:51:00.097Z,102096.50
2023-02-13T03:53:28.236Z,102094.63
2023-02-13T03:56:13.346Z,102086.56
2023-02-13T03:59:00.160Z,102090.25
2023-02-13T04:01:28.240Z,102093.94
2023-02-13T04:03:58.202Z,102096.50
2023-02-13T04:06:27.853Z,102092.97
2023-02-13T04:08:55.484Z,102086.88
2023-02-13T04:11:24.445Z,102093.94
2023-02-13T04:13:55.800Z,102089.25
2023-02-13T04:16:23.825Z,102086.56
2023-02-13T04:18:51.625Z,102092.78
2023-02-13T04:21:19.332Z,102077.47
2023-02-13T04:23:48.430Z,102088.22
2023-02-13T04:26:17.738Z,102088.22
2023-02-13T04:28:45.358Z,102085.53
2023-02-13T04:31:13.122Z,102095.31
2023-02-13T04:33:40.783Z,102085.53
2023-02-13T04:36:08.716Z,102083.88
2023-02-13T04:38:36.345Z,102086.56
2023-02-13T04:41:05.452Z,102086.56
2023-02-13T04:43:33.139Z,102088.56
2023-02-13T04:46:00.925Z,102092.28
2023-02-13T04:48:28.633Z,102094.97
2023-02-13T04:50:56.537Z,102095.94
2023-02-13T04:53:24.494Z,102086.88
2023-02-13T04:55:52.653Z,102087.72
2023-02-13T04:58:21.715Z,102091.44
2023-02-13T05:00:49.387Z,102092.28
2023-02-13T05:03:17.075Z,102090.56
2023-02-13T05:05:45.016Z,102093.25
2023-02-13T05:08:12.690Z,102096.97
2023-02-13T05:10:40.430Z,102095.94
2023-02-13T05:13:08.133Z,102093.44
2023-02-13T05:15:37.269Z,102087.88
2023-02-13T05:18:05.121Z,102081.81
2023-02-13T05:20:32.829Z,102087.22
2023-02-13T05:23:17.713Z,102094.28
2023-02-13T05:25:45.553Z,102092.59
2023-02-13T05:28:27.189Z,102092.59
2023-02-13T05:30:56.783Z,102099.66
2023-02-13T05:33:24.894Z,102099.66
2023-02-13T05:35:52.605Z,102095.94
2023-02-13T05:38:20.302Z,102111.25
2023-02-13T05:40:48.033Z,102106.72
2023-02-13T05:43:15.761Z,102106.72
2023-02-13T05:45:43.462Z,102110.44
2023-02-13T05:48:12.481Z,102108.75
2023-02-13T05:50:40.073Z,102108.75
2023-02-13T05:53:07.771Z,102112.44
2023-02-13T05:55:35.514Z,102107.88
2023-02-13T05:58:03.195Z,102124.03
2023-02-13T06:00:30.924Z,102124.03
2023-02-13T06:02:58.675Z,102119.53
2023-02-13T06:05:27.836Z,102121.19
2023-02-13T06:07:55.519Z,102123.88
2023-02-13T06:10:23.197Z,102118.50
2023-02-13T06:12:50.814Z,102117.50
2023-02-13T06:15:18.550Z,102126.44
2023-02-13T06:17:46.310Z,102121.88
2023-02-13T06:20:14.061Z,102120.03
2023-02-13T06:22:43.142Z,102121.88
2023-02-13T06:25:10.868Z,102115.50
2023-02-13T06:27:38.554Z,102113.47
2023-02-13T06:30:06.752Z,102117.84
2023-02-13T06:32:34.464Z,102116.00
2023-02-13T06:35:04.503Z,102110.47
2023-02-13T06:37:33.120Z,102108.47
2023-02-13T06:40:02.291Z,102117.22
2023-02-13T06:42:30.001Z,102108.13
2023-02-13T06:44:57.666Z,102112.50
2023-02-13T06:47:25.424Z,102115.06
2023-02-13T06:49:53.133Z,102116.72
2023-02-13T06:52:20.985Z,102114.91
2023-02-13T06:54:48.745Z,102123.00
2023-02-13T06:57:17.913Z,102123.00
2023-02-13T06:59:45.862Z,102113.88
2023-02-13T07:02:13.620Z,102121.97
2023-02-13T07:04:41.282Z,102128.06
2023-02-13T07:07:08.942Z,102123.50
2023-02-13T07:09:36.701Z,102129.72
2023-02-13T07:12:04.698Z,102130.56
2023-02-13T07:14:33.831Z,102133.09
2023-02-13T07:17:01.586Z,102129.41
2023-02-13T07:19:29.278Z,102120.34
2023-02-13T07:21:57.058Z,102127.41
2023-02-13T07:24:24.780Z,102136.16
2023-02-13T07:26:52.466Z,102134.31
2023-02-13T07:29:20.208Z,102132.47
2023-02-13T07:31:49.365Z,102140.38
2023-02-13T07:34:17.111Z,102140.25
2023-02-13T07:36:44.767Z,102141.94
2023-02-13T07:39:12.464Z,102143.63
2023-02-13T07:41:40.554Z,102150.88
2023-02-13T07:44:08.314Z,102142.78
2023-02-13T07:46:36.079Z,102150.03
2023-02-13T07:49:05.538Z,102139.25
2023-02-13T07:51:33.268Z,102150.03
2023-02-13T07:54:01.253Z,102150.03
2023-02-13T07:56:28.974Z,102155.44
2023-02-13T07:58:56.603Z,102150.88
2023-02-13T08:01:24.870Z,102156.25
2023-02-13T08:03:52.740Z,102155.94
2023-02-13T08:06:22.417Z,102152.91
2023-02-13T08:09:10.028Z,102141.16
2023-02-13T08:11:54.856Z,102149.88
2023-02-13T08:14:23.200Z,102151.41
2023-02-13T08:16:51.273Z,102144.19
2023-02-13T08:19:19.866Z,102137.66
2023-02-13T08:21:49.671Z,102144.72
2023-02-13T08:24:17.364Z,102143.53
2023-02-13T08:26:46.811Z,102139.00
2023-02-13T08:29:14.457Z,102146.75
2023-02-13T08:31:42.666Z,102146.41
2023-02-13T08:34:10.381Z,102143.56
2023-02-13T08:36:38.612Z,102142.41
2023-02-13T08:39:07.761Z,102134.31
2023-02-13T08:41:36.246Z,102145.78
2023-02-13T08:44:03.865Z,102141.91
2023-02-13T08:46:32.352Z,102137.03
2023-02-13T08:49:00.769Z,102146.78
2023-02-13T08:51:29.121Z,102141.09
2023-02-13T08:53:56.821Z,102134.69
2023-02-13T08:56:26.636Z,102138.06
2023-02-13T08:58:55.042Z,102136.06
2023-02-13T09:01:24.029Z,102145.66
2023-02-13T09:03:52.666Z,102138.44
2023-02-13T09:06:20.347Z,102140.94
2023-02-13T09:08:48.741Z,102133.69
2023-02-13T09:11:16.424Z,102140.78
2023-02-13T09:13:48.862Z,102143.47
2023-02-13T09:16:16.726Z,102144.16
2023-02-13T09:18:45.663Z,102149.56
2023-02-13T09:21:13.773Z,102148.53
2023-02-13T09:23:42.266Z,102149.22
2023-02-13T09:26:10.571Z,102150.06
2023-02-13T09:28:39.107Z,102150.91
2023-02-13T09:31:08.759Z,102147.22
2023-02-13T09:33:37.223Z,102151.59
2023-02-13T09:36:05.573Z,102154.97
2023-02-13T09:38:33.944Z,102151.25
2023-02-13T09:41:01.886Z,102145.72
2023-02-13T09:43:31.142Z,102155.47
2023-02-13T09:46:00.467Z,102148.06
2023-02-13T09:48:32.744Z,102148.75
2023-02-13T09:51:00.506Z,102146.06
2023-02-13T09:53:29.251Z,102145.03
2023-02-13T09:56:00.620Z,102137.63
2023-02-13T09:58:36.935Z,102134.75
2023-02-13T10:01:04.789Z,102135.63
2023-02-13T10:03:33.990Z,102129.88
2023-02-13T10:06:05.523Z,102132.44
2023-02-13T10:08:35.984Z,102132.28
2023-02-13T10:11:05.945Z,102132.28
2023-02-13T10:13:41.039Z,102125.00
2023-02-13T10:16:10.218Z,102126.53
2023-02-13T10:18:43.402Z,102124.69
2023-02-13T10:21:11.749Z,102119.97
2023-02-13T10:23:40.683Z,102115.25
2023-02-13T10:26:09.305Z,102110.53
2023-02-13T10:28:38.654Z,102102.44
2023-02-13T10:31:07.844Z,102106.66
2023-02-13T10:33:36.352Z,102102.09
2023-02-13T10:36:06.937Z,102099.22
2023-02-13T10:38:35.972Z,102090.13
2023-02-13T10:41:11.759Z,102095.34
2023-02-13T10:43:41.153Z,102092.28
2023-02-13T10:46:14.885Z,102086.91
2023-02-13T10:48:47.612Z,102082.19
2023-02-13T10:51:18.376Z,102083.88
2023-02-13T10:53:50.881Z,102084.72
2023-02-13T10:56:28.405Z,102080.84
2023-02-13T10:59:00.649Z,102080.50
2023-02-13T11:01:31.340Z,102082.16
2023-02-13T11:04:04.204Z,102084.72
2023-02-13T11:06:33.368Z,102077.28
2023-02-13T11:09:01.907Z,102084.38
2023-02-13T11:11:29.766Z,102081.50
2023-02-13T11:14:09.467Z,102078.63
2023-02-13T11:16:44.516Z,102078.47
2023-02-13T11:19:19.686Z,102070.19
2023-02-13T11:21:49.007Z,102077.09
2023-02-13T11:24:21.152Z,102071.69
2023-02-13T11:26:51.173Z,102069.66
2023-02-13T11:29:19.548Z,102059.72
2023-02-13T11:31:48.015Z,102063.25
2023-02-13T11:34:19.549Z,102062.25
2023-02-13T11:36:49.186Z,102056.84
2023-02-13T11:39:19.060Z,102052.13
2023-02-13T11:41:47.090Z,102043.00
2023-02-13T11:44:22.576Z,102049.06
2023-02-13T11:46:50.679Z,102040.78
2023-02-13T11:49:21.269Z,102038.09
2023-02-13T11:51:50.487Z,102037.09
2023-02-13T11:54:29.639Z,102027.97
2023-02-13T11:57:05.894Z,102026.97
2023-02-13T11:59:35.429Z,102019.69
2023-02-13T12:02:03.684Z,102014.94
2023-02-13T12:04:32.084Z,102012.25
2023-02-13T12:07:02.193Z,102013.94
2023-02-13T12:09:30.987Z,102003.97
2023-02-13T12:12:06.418Z,102000.25
2023-02-13T12:14:38.982Z,102001.75
2023-02-13T12:17:07.134Z,101999.06
2023-02-13T12:19:36.239Z,101995.38
2023-02-13T12:22:15.048Z,101996.19
2023-02-13T12:25:05.598Z,102002.28
2023-02-13T12:27:34.793Z,101998.75
2023-02-13T12:30:10.393Z,101993.97
2023-02-13T12:32:40.317Z,101981.34
2023-02-13T12:35:16.961Z,101982.19
2023-02-13T12:37:55.909Z,101979.47
2023-02-13T12:40:39.146Z,101980.47
2023-02-13T12:43:15.185Z,101980.31
2023-02-13T12:45:45.658Z,101981.16
2023-02-13T12:48:18.840Z,101973.41
2023-02-13T12:50:55.648Z,101962.59
2023-02-13T12:53:29.633Z,101967.84
2023-02-13T12:56:10.685Z,101965.97
2023-02-13T12:58:56.104Z,101962.44
2023-02-13T13:01:27.130Z,101964.94
2023-02-13T13:03:58.123Z,101965.97
2023-02-13T13:06:44.384Z,101963.94
2023-02-13T13:09:17.597Z,101956.84
2023-02-13T13:11:49.030Z,101962.09
2023-02-13T13:14:18.776Z,101962.09
2023-02-13T13:16:49.214Z,101965.63
2023-02-13T13:19:20.700Z,101961.91
2023-02-13T13:21:49.901Z,101962.25
2023-02-13T13:24:26.092Z,101963.28
2023-02-13T13:26:54.980Z,101959.38
2023-02-13T13:29:23.594Z,101956.53
2023-02-13T13:31:52.420Z,101953.66
2023-02-13T13:34:22.263Z,101958.22
2023-02-13T13:36:50.382Z,101953.66
2023-02-13T13:39:23.050Z,101960.72
2023-02-13T13:41:54.512Z,101952.63
2023-02-13T13:44:35.617Z,101951.97
2023-02-13T13:47:05.797Z,101950.25
2023-02-13T13:49:37.087Z,101943.34
2023-02-13T13:52:11.620Z,101940.31
2023-02-13T13:54:40.053Z,101936.44
2023-02-13T13:57:09.379Z,101948.06
2023-02-13T13:59:56.393Z,101941.66
2023-02-13T14:02:40.482Z,101948.41
2023-02-13T14:05:19.411Z,101945.03
2023-02-13T14:07:47.362Z,101940.66
2023-02-13T14:10:33.054Z,101934.41
2023-02-13T14:13:02.688Z,101939.81
2023-02-13T14:15:49.914Z,101941.00
2023-02-13T14:18:20.451Z,101941.00
2023-02-13T14:20:52.362Z,101929.72
2023-02-13T14:23:30.048Z,101928.84
2023-02-13T14:26:14.294Z,101932.59
2023-02-13T14:28:43.477Z,101928.22
2023-02-13T14:31:17.232Z,101931.06
2023-02-13T14:33:44.971Z,101929.56
2023-02-13T14:36:19.989Z,101924.16
2023-02-13T14:38:50.197Z,101926.19
2023-02-13T14:41:33.546Z,101922.50
2023-02-13T14:44:02.583Z,101917.75
2023-02-13T14:46:32.816Z,101908.63
2023-02-13T14:49:02.233Z,101907.63
2023-02-13T14:51:33.017Z,101904.06
2023-02-13T14:54:02.766Z,101903.91
2023-02-13T14:56:31.683Z,101902.41
2023-02-13T14:59:01.540Z,101893.44
2023-02-13T15:01:31.636Z,101894.31
2023-02-13T15:04:01.274Z,101893.78
2023-02-13T15:06:29.859Z,101889.44
2023-02-13T15:08:58.545Z,101904.94
2023-02-13T15:11:39.120Z,101895.19
2023-02-13T15:14:24.099Z,101896.19
2023-02-13T15:16:54.006Z,101896.53
2023-02-13T15:19:22.874Z,101896.53
2023-02-13T15:21:52.008Z,101888.44
2023-02-13T15:24:20.434Z,101885.94
2023-02-13T15:26:51.034Z,101886.09
2023-02-13T15:29:35.307Z,101884.44
2023-02-13T15:32:20.286Z,101887.28
2023-02-13T15:34:48.923Z,101876.69
2023-02-13T15:37:21.425Z,101885.78
2023-02-13T15:39:50.195Z,101881.41
2023-02-13T15:42:17.824Z,101885.13
2023-02-13T15:44:46.636Z,101871.81
2023-02-13T15:47:17.705Z,101880.06
2023-02-13T15:49:48.955Z,101882.09
2023-02-13T15:52:17.915Z,101876.69
2023-02-13T15:54:49.501Z,101876.06
2023-02-13T15:57:17.139Z,101872.69
2023-02-13T15:59:44.857Z,101879.28
2023-02-13T16:02:14.709Z,101884.84
2023-02-13T16:04:42.487Z,101891.25
2023-02-13T16:07:12.559Z,101886.88
2023-02-13T16:09:40.201Z,101884.34
2023-02-13T16:12:19.304Z,101893.47
2023-02-13T16:14:48.550Z,101889.25
2023-02-13T16:17:18.452Z,101889.25
2023-02-13T16:19:47.670Z,101901.88
2023-02-13T16:22:20.344Z,101896.69
2023-02-13T16:24:49.284Z,101898.72
2023-02-13T16:27:17.780Z,101899.72
2023-02-13T16:29:46.808Z,101899.72
2023-02-13T16:32:17.213Z,101901.59
2023-02-13T16:34:44.958Z,101914.06
2023-02-13T16:37:29.283Z,101908.81
2023-02-13T16:39:58.408Z,101911.53
2023-02-13T16:42:26.563Z,101906.13
2023-02-13T16:45:10.308Z,101908.19
2023-02-13T16:47:38.720Z,101899.22
2023-02-13T16:50:14.780Z,101906.47
2023-02-13T16:52:42.442Z,101910.19
2023-02-13T16:55:17.324Z,101914.75
2023-02-13T16:57:45.459Z,101907.66
2023-02-13T17:00:20.517Z,101912.38
2023-02-13T17:02:48.217Z,101909.69
2023-02-13T17:05:23.533Z,101913.56
2023-02-13T17:07:52.071Z,101912.56
2023-02-13T17:10:21.814Z,101911.91
2023-02-13T17:12:50.542Z,101914.59
2023-02-13T17:15:18.661Z,101910.22
2023-02-13T17:17:48.298Z,101900.44
2023-02-13T17:20:17.680Z,101900.44
2023-02-13T17:22:48.474Z,101896.91
2023-02-13T17:25:22.550Z,101895.19
2023-02-13T17:27:51.074Z,101897.91
2023-02-13T17:30:19.453Z,101898.88
2023-02-13T17:32:47.098Z,101896.38
2023-02-13T17:35:17.437Z,101896.38
2023-02-13T17:37:45.172Z,101898.25
2023-02-13T17:40:16.877Z,101897.38
2023-02-13T17:42:46.183Z,101893.00
2023-02-13T17:45:16.369Z,101902.13
2023-02-13T17:47:44.839Z,101893.16
2023-02-13T17:50:14.700Z,101897.72
2023-02-13T17:52:42.367Z,101897.72
2023-02-13T17:55:16.689Z,101906.00
2023-02-13T17:57:44.579Z,101896.06
2023-02-13T18:00:17.498Z,101892.69
2023-02-13T18:02:45.182Z,101891.66
2023-02-13T18:05:17.441Z,101883.75
2023-02-13T18:07:45.162Z,101878.53
2023-02-13T18:10:14.784Z,101892.69
2023-02-13T18:12:42.521Z,101899.25
2023-02-13T18:15:11.380Z,101902.78
2023-02-13T18:17:40.474Z,101897.59
2023-02-13T18:20:09.519Z,101892.34
2023-02-13T18:22:37.242Z,101886.97
2023-02-13T18:25:09.441Z,101882.41
2023-02-13T18:27:37.150Z,101882.41
2023-02-13T18:30:06.675Z,101878.03
2023-02-13T18:32:34.417Z,101868.09
2023-02-13T18:35:08.482Z,101874.31
2023-02-13T18:37:36.283Z,101878.88
2023-02-13T18:40:04.038Z,101877.84
2023-02-13T18:42:33.412Z,101881.56
2023-02-13T18:45:01.124Z,101873.47
2023-02-13T18:47:29.632Z,101878.88
2023-02-13T18:50:03.838Z,101878.88
2023-02-13T18:52:34.418Z,101866.41
2023-02-13T18:55:07.003Z,101868.09
2023-02-13T18:57:35.817Z,101869.09
2023-02-13T19:00:03.737Z,101877.19
2023-02-13T19:02:33.065Z,101872.63
2023-02-13T19:05:01.967Z,101870.09
2023-02-13T19:07:29.586Z,101874.50
2023-02-13T19:09:59.473Z,101866.41
2023-02-13T19:12:27.150Z,101877.19
2023-02-13T19:14:55.973Z,101872.81
2023-02-13T19:17:23.645Z,101879.91
2023-02-13T19:19:51.829Z,101884.25
2023-02-13T19:22:20.537Z,101878.88
2023-02-13T19:24:48.212Z,101870.78
2023-02-13T19:27:18.383Z,101866.41
2023-02-13T19:29:46.018Z,101861.00
2023-02-13T19:32:14.705Z,101862.69
2023-02-13T19:34:42.393Z,101856.63
2023-02-13T19:37:12.513Z,101852.94
2023-02-13T19:39:40.397Z,101850.22
2023-02-13T19:42:08.949Z,101850.22
2023-02-13T19:44:38.017Z,101852.09
2023-02-13T19:47:06.545Z,101851.91
2023-02-13T19:49:35.165Z,101850.22
2023-02-13T19:52:03.549Z,101846.50
2023-02-13T19:54:37.729Z,101843.81
2023-02-13T19:57:08.006Z,101835.72
2023-02-13T19:59:35.699Z,101839.44
2023-02-13T20:02:06.666Z,101835.72
2023-02-13T20:04:39.524Z,101835.72
2023-02-13T20:07:07.800Z,101841.13
2023-02-13T20:09:42.527Z,101835.72
2023-02-13T20:12:10.224Z,101836.75
2023-02-13T20:14:39.608Z,101833.03
2023-02-13T20:17:08.617Z,101827.63
2023-02-13T20:19:36.404Z,101825.97
2023-02-13T20:22:04.984Z,101819.53
2023-02-13T20:24:33.066Z,101818.72
2023-02-13T20:27:03.595Z,101822.25
2023-02-13T20:29:31.305Z,101814.16
2023-02-13T20:31:59.096Z,101817.69
2023-02-13T20:34:31.580Z,101824.94
2023-02-13T20:37:05.238Z,101825.78
2023-02-13T20:39:34.059Z,101829.50
2023-02-13T20:42:01.839Z,101826.78
2023-02-13T20:44:30.370Z,101830.31
2023-02-13T20:47:01.144Z,101835.72
2023-02-13T20:49:31.122Z,101833.22
2023-02-13T20:52:01.126Z,101835.91
2023-02-13T20:54:28.854Z,101825.97
2023-02-13T20:56:56.530Z,101831.34
2023-02-13T20:59:25.154Z,101841.13
2023-02-13T21:01:52.837Z,101835.72
2023-02-13T21:04:22.061Z,101844.84
2023-02-13T21:06:51.099Z,101828.66
2023-02-13T21:09:18.839Z,101827.81
2023-02-13T21:11:47.503Z,101816.16
2023-02-13T21:14:15.196Z,101818.72
2023-02-13T21:16:44.079Z,101817.88
2023-02-13T21:19:13.441Z,101817.03
2023-02-13T21:21:46.167Z,101816.16
2023-02-13T21:24:15.510Z,101812.47
2023-02-13T21:26:44.043Z,101817.03
2023-02-13T21:29:11.701Z,101812.47
2023-02-13T21:31:40.687Z,101816.16
2023-02-13T21:34:08.901Z,101808.09
2023-02-13T21:36:37.850Z,101817.03
2023-02-13T21:39:05.638Z,101816.16
2023-02-13T21:41:35.567Z,101806.25
2023-02-13T21:44:03.287Z,101803.56
2023-02-13T21:46:32.641Z,101806.25
2023-02-13T21:49:02.019Z,101804.38
2023-02-13T21:51:34.613Z,101805.38
2023-02-13T21:54:02.346Z,101812.47
2023-02-13T21:56:36.825Z,101810.78
2023-02-13T21:59:05.919Z,101810.78
2023-02-13T22:01:35.645Z,101814.50
2023-02-13T22:04:03.765Z,101812.81
2023-02-13T22:06:33.646Z,101812.81
2023-02-13T22:09:01.914Z,101805.72
2023-02-13T22:11:29.572Z,101800.34
2023-02-13T22:13:58.617Z,101805.72
2023-02-13T22:16:27.688Z,101806.75
2023-02-13T22:18:56.602Z,101813.00
2023-02-13T22:21:24.600Z,101812.16
2023-02-13T22:23:56.504Z,101809.47
2023-02-13T22:26:24.706Z,101817.72
2023-02-13T22:28:53.375Z,101813.16
2023-02-13T22:31:24.153Z,101807.75
2023-02-13T22:34:04.459Z,101806.09
2023-02-13T22:36:32.648Z,101806.25
2023-02-13T22:39:01.629Z,101801.88
2023-02-13T22:41:29.318Z,101818.06
2023-02-13T22:43:57.008Z,101801.03
2023-02-13T22:46:26.081Z,101806.59
2023-02-13T22:48:57.325Z,101813.84
2023-02-13T22:51:26.227Z,101812.19
2023-02-13T22:53:54.261Z,101816.69
2023-02-13T22:56:22.168Z,101824.78
2023-02-13T22:58:50.563Z,101821.25
2023-02-13T23:01:18.588Z,101824.97
2023-02-13T23:03:46.642Z,101828.72
2023-02-13T23:06:16.644Z,101825.16
2023-02-13T23:08:44.309Z,101828.88
2023-02-13T23:11:31.532Z,101830.72
2023-02-13T23:13:59.240Z,101826.16
2023-02-13T23:16:27.723Z,101830.72
2023-02-13T23:18:54.585Z,101823.47
2023-02-13T23:21:23.987Z,101815.53
2023-02-13T23:23:51.798Z,101814.56
2023-02-13T23:26:19.583Z,101831.56
2023-02-13T23:28:47.322Z,101819.94
2023-02-13T23:31:15.154Z,101819.94
2023-02-13T23:33:42.873Z,101829.88
2023-02-13T23:36:10.791Z,101835.28
2023-02-13T23:38:39.884Z,101820.94
2023-02-13T23:41:07.991Z,101812.00
2023-02-13T23:43:35.640Z,101830.03
2023-02-13T23:46:03.953Z,101831.72
2023-02-13T23:48:32.183Z,101826.53
2023-02-13T23:51:00.200Z,101822.31
2023-02-13T23:53:28.219Z,101833.94
2023-02-13T23:55:57.219Z,101844.72
2023-02-13T23:58:24.856Z,101840.34
